createdAt,value
2023-04-10T00:02:12.344Z,17.63
2023-04-10T00:05:17.249Z,16.67
2023-04-10T00:08:19.949Z,17.70
2023-04-10T00:11:22.806Z,16.00
2023-04-10T00:14:25.699Z,16.65
2023-04-10T00:17:28.635Z,17.35
2023-04-10T00:20:31.464Z,15.68
2023-04-10T00:23:35.061Z,15.68
2023-04-10T00:26:37.729Z,15.73
2023-04-10T00:29:40.663Z,16.35
2023-04-10T00:32:44.155Z,16.13
2023-04-10T00:35:47.267Z,15.40
2023-04-10T00:38:52.729Z,15.38
2023-04-10T00:41:55.619Z,15.30
2023-04-10T00:44:58.998Z,16.50
2023-04-10T00:48:01.798Z,15.82
2023-04-10T00:51:06.807Z,16.00
2023-04-10T00:54:10.814Z,16.30
2023-04-10T00:57:13.517Z,16.15
2023-04-10T01:00:17.070Z,16.67
2023-04-10T01:03:21.746Z,15.75
2023-04-10T01:06:27.845Z,15.95
2023-04-10T01:09:50.659Z,15.68
2023-04-10T01:12:57.042Z,15.82
2023-04-10T01:16:11.114Z,17.00
2023-04-10T01:19:21.644Z,20.38
2023-04-10T01:22:28.917Z,17.08
2023-04-10T01:25:47.492Z,16.83
2023-04-10T01:29:02.229Z,17.70
2023-04-10T01:32:12.263Z,16.85
2023-04-10T01:35:16.138Z,16.65
2023-04-10T01:38:21.243Z,16.92
2023-04-10T01:41:24.387Z,17.83
2023-04-10T01:44:30.351Z,17.85
2023-04-10T01:47:33.252Z,16.25
2023-04-10T01:50:36.467Z,17.45
2023-04-10T01:53:39.786Z,15.88
2023-04-10T01:56:43.486Z,16.05
2023-04-10T01:59:51.512Z,17.25
2023-04-10T02:02:54.519Z,18.38
2023-04-10T02:06:18.176Z,17.77
2023-04-10T02:09:28.309Z,15.70
2023-04-10T02:12:41.875Z,18.30
2023-04-10T02:15:47.076Z,16.80
2023-04-10T02:18:51.231Z,16.75
2023-04-10T02:21:54.646Z,17.63
2023-04-10T02:24:57.579Z,17.38
2023-04-10T02:28:07.508Z,18.23
2023-04-10T02:31:10.405Z,18.70
2023-04-10T02:34:13.177Z,18.13
2023-04-10T02:37:16.003Z,18.73
2023-04-10T02:40:18.696Z,17.85
2023-04-10T02:43:29.972Z,18.73
2023-04-10T02:46:32.974Z,18.50
2023-04-10T02:49:35.806Z,18.17
2023-04-10T02:52:46.409Z,18.35
2023-04-10T02:55:49.427Z,18.23
2023-04-10T02:58:52.191Z,18.23
2023-04-10T03:01:55.668Z,19.10
2023-04-10T03:04:58.510Z,18.70
2023-04-10T03:08:04.210Z,19.88
2023-04-10T03:11:08.399Z,20.50
2023-04-10T03:14:11.318Z,18.42
2023-04-10T03:17:14.091Z,17.95
2023-04-10T03:20:16.848Z,19.05
2023-04-10T03:23:19.618Z,19.95
2023-04-10T03:26:24.370Z,19.33
2023-04-10T03:29:27.612Z,20.40
2023-04-10T03:32:31.854Z,19.52
2023-04-10T03:35:35.359Z,20.45
2023-04-10T03:38:38.279Z,19.88
2023-04-10T03:41:43.867Z,20.45
2023-04-10T03:44:46.512Z,20.15
2023-04-10T03:47:52.498Z,19.92
2023-04-10T03:50:56.050Z,21.40
2023-04-10T03:53:58.742Z,20.70
2023-04-10T03:57:01.922Z,19.15
2023-04-10T04:00:06.196Z,20.13
2023-04-10T04:03:22.693Z,21.05
2023-04-10T04:06:34.619Z,19.27
2023-04-10T04:09:58.668Z,18.23
2023-04-10T04:13:17.485Z,20.00
2023-04-10T04:16:28.987Z,20.95
2023-04-10T04:19:54.359Z,18.27
2023-04-10T04:23:00.859Z,20.15
2023-04-10T04:26:22.741Z,18.35
2023-04-10T04:29:51.601Z,20.00
2023-04-10T04:33:22.001Z,20.15
2023-04-10T04:36:54.402Z,19.42
2023-04-10T04:40:12.935Z,19.75
2023-04-10T04:43:34.562Z,18.92
2023-04-10T04:46:44.723Z,19.65
2023-04-10T04:50:06.815Z,19.77
2023-04-10T04:53:28.108Z,20.30
2023-04-10T04:56:49.802Z,18.90
2023-04-10T05:00:18.684Z,19.63
2023-04-10T05:03:33.252Z,19.98
2023-04-10T05:07:05.377Z,19.85
2023-04-10T05:10:15.724Z,20.27
2023-04-10T05:13:36.955Z,20.23
2023-04-10T05:17:01.049Z,17.58
2023-04-10T05:20:19.697Z,19.88
2023-04-10T05:23:57.966Z,20.05
2023-04-10T05:27:18.094Z,19.92
2023-04-10T05:30:29.943Z,19.88
2023-04-10T05:34:01.380Z,21.48
2023-04-10T05:37:24.349Z,21.42
2023-04-10T05:40:34.178Z,20.48
2023-04-10T05:43:57.112Z,20.10
2023-04-10T05:47:19.939Z,20.48
2023-04-10T05:50:40.969Z,20.45
2023-04-10T05:54:06.823Z,20.10
2023-04-10T05:57:45.108Z,19.08
2023-04-10T06:01:16.682Z,19.15
2023-04-10T06:04:28.134Z,19.02
2023-04-10T06:07:33.534Z,20.00
2023-04-10T06:10:36.782Z,19.90
2023-04-10T06:13:39.769Z,21.15
2023-04-10T06:16:43.538Z,17.77
2023-04-10T06:19:46.760Z,18.90
2023-04-10T06:22:52.173Z,18.77
2023-04-10T06:25:57.188Z,18.63
2023-04-10T06:29:00.502Z,17.88
2023-04-10T06:32:03.758Z,18.88
2023-04-10T06:35:11.693Z,18.60
2023-04-10T06:38:14.669Z,18.63
2023-04-10T06:41:18.780Z,18.27
2023-04-10T06:44:21.540Z,19.30
2023-04-10T06:47:24.408Z,18.08
2023-04-10T06:50:27.311Z,18.63
2023-04-10T06:53:30.660Z,18.05
2023-04-10T06:56:33.412Z,19.85
2023-04-10T06:59:36.419Z,18.27
2023-04-10T07:02:39.518Z,18.30
2023-04-10T07:05:42.496Z,18.25
2023-04-10T07:08:45.363Z,19.58
2023-04-10T07:11:48.712Z,18.70
2023-04-10T07:14:51.531Z,18.65
2023-04-10T07:17:54.392Z,18.67
2023-04-10T07:20:57.397Z,19.48
2023-04-10T07:24:00.222Z,19.40
2023-04-10T07:27:04.011Z,17.25
2023-04-10T07:30:07.586Z,17.48
2023-04-10T07:33:10.677Z,18.08
2023-04-10T07:36:13.899Z,19.02
2023-04-10T07:39:16.584Z,18.55
2023-04-10T07:42:19.537Z,17.50
2023-04-10T07:45:22.441Z,18.67
2023-04-10T07:48:25.158Z,18.30
2023-04-10T07:51:29.292Z,18.38
2023-04-10T07:54:34.317Z,18.33
2023-04-10T07:57:37.168Z,17.40
2023-04-10T08:00:39.953Z,17.65
2023-04-10T08:03:44.402Z,16.38
2023-04-10T08:06:47.600Z,15.93
2023-04-10T08:09:50.260Z,16.75
2023-04-10T08:12:53.146Z,16.35
2023-04-10T08:15:58.433Z,16.95
2023-04-10T08:19:02.499Z,17.38
2023-04-10T08:22:07.586Z,16.40
2023-04-10T08:25:10.699Z,16.88
2023-04-10T08:28:13.544Z,17.25
2023-04-10T08:31:16.588Z,17.95
2023-04-10T08:34:19.558Z,17.33
2023-04-10T08:37:22.442Z,16.67
2023-04-10T08:40:25.172Z,15.00
2023-04-10T08:43:28.104Z,14.05
2023-04-10T08:46:32.027Z,14.10
2023-04-10T08:49:57.453Z,14.98
2023-04-10T08:53:11.460Z,15.48
2023-04-10T08:56:16.990Z,15.35
2023-04-10T08:59:19.962Z,14.32
2023-04-10T09:02:22.865Z,14.98
2023-04-10T09:05:27.753Z,13.75
2023-04-10T09:08:30.945Z,13.77
2023-04-10T09:11:52.203Z,13.27
2023-04-10T09:14:57.593Z,13.82
2023-04-10T09:18:01.223Z,12.25
2023-04-10T09:21:08.401Z,11.60
2023-04-10T09:27:40.655Z,10.77
2023-04-10T09:30:43.834Z,10.18
2023-04-10T09:33:46.817Z,10.55
2023-04-10T09:36:57.416Z,14.00
2023-04-10T09:40:00.258Z,11.10
2023-04-10T09:43:26.685Z,9.20
2023-04-10T09:46:29.528Z,9.25
2023-04-10T09:49:45.939Z,10.65
2023-04-10T09:52:58.014Z,8.88
2023-04-10T09:56:02.483Z,9.38
2023-04-10T09:59:14.581Z,8.35
2023-04-10T10:02:22.151Z,8.57
2023-04-10T10:05:28.526Z,8.02
2023-04-10T10:08:32.125Z,8.45
2023-04-10T10:11:36.005Z,9.50
2023-04-10T10:14:56.996Z,7.35
2023-04-10T10:18:30.239Z,8.10
2023-04-10T10:21:34.632Z,8.68
2023-04-10T10:24:38.648Z,13.05
2023-04-10T10:27:42.262Z,12.45
2023-04-10T10:30:45.613Z,8.45
2023-04-10T10:33:48.563Z,9.10
2023-04-10T10:36:51.600Z,8.60
2023-04-10T10:40:13.066Z,8.57
2023-04-10T10:43:21.390Z,8.55
2023-04-10T10:46:49.737Z,8.60
2023-04-10T10:49:56.884Z,8.75
2023-04-10T10:53:01.614Z,7.18
2023-04-10T10:56:27.270Z,6.88
2023-04-10T10:59:48.558Z,7.80
2023-04-10T11:03:09.431Z,7.30
2023-04-10T11:06:17.238Z,7.00
2023-04-10T11:09:52.169Z,7.43
2023-04-10T11:13:18.252Z,6.85
2023-04-10T11:16:21.744Z,7.30
2023-04-10T11:19:26.806Z,7.80
2023-04-10T11:22:29.890Z,7.65
2023-04-10T11:25:49.632Z,6.70
2023-04-10T11:28:52.496Z,9.95
2023-04-10T11:32:03.931Z,6.70
2023-04-10T11:35:07.097Z,6.85
2023-04-10T11:38:14.780Z,7.70
2023-04-10T11:41:17.435Z,7.25
2023-04-10T11:44:26.748Z,7.45
2023-04-10T11:47:29.861Z,7.10
2023-04-10T11:50:36.340Z,7.85
2023-04-10T11:53:39.848Z,7.70
2023-04-10T11:57:09.628Z,6.50
2023-04-10T12:00:12.945Z,6.70
2023-04-10T12:03:16.487Z,6.43
2023-04-10T12:06:20.067Z,6.03
2023-04-10T12:09:23.173Z,6.47
2023-04-10T12:12:39.467Z,6.28
2023-04-10T12:15:42.502Z,6.18
2023-04-10T12:18:45.737Z,7.55
2023-04-10T12:21:49.082Z,6.68
2023-04-10T12:24:53.857Z,6.82
2023-04-10T12:27:56.796Z,6.20
2023-04-10T12:30:59.757Z,5.78
2023-04-10T12:34:05.796Z,6.05
2023-04-10T12:37:10.220Z,5.95
2023-04-10T12:40:13.767Z,6.88
2023-04-10T12:43:32.266Z,6.82
2023-04-10T12:46:36.865Z,6.07
2023-04-10T12:49:39.981Z,6.13
2023-04-10T12:53:01.914Z,5.60
2023-04-10T12:56:06.977Z,6.57
2023-04-10T12:59:09.953Z,6.25
2023-04-10T13:02:12.799Z,5.60
2023-04-10T13:05:16.081Z,6.18
2023-04-10T13:08:19.043Z,5.82
2023-04-10T13:11:23.416Z,5.97
2023-04-10T13:14:26.676Z,6.70
2023-04-10T13:17:29.507Z,5.82
2023-04-10T13:20:32.471Z,6.20
2023-04-10T13:23:35.213Z,6.88
2023-04-10T13:26:38.191Z,7.90
2023-04-10T13:29:42.552Z,5.90
2023-04-10T13:32:45.233Z,5.75
2023-04-10T13:35:48.119Z,5.65
2023-04-10T13:38:51.260Z,6.63
2023-04-10T13:41:54.069Z,5.15
2023-04-10T13:44:57.217Z,6.65
2023-04-10T13:48:00.022Z,7.20
2023-04-10T13:51:02.970Z,7.05
2023-04-10T13:54:05.707Z,6.75
2023-04-10T13:57:08.622Z,6.63
2023-04-10T14:00:12.179Z,7.45
2023-04-10T14:03:18.102Z,7.00
2023-04-10T14:06:21.069Z,5.13
2023-04-10T14:09:24.235Z,6.80
2023-04-10T14:12:27.754Z,5.65
2023-04-10T14:15:30.861Z,5.97
2023-04-10T14:18:33.765Z,6.93
2023-04-10T14:21:37.892Z,4.72
2023-04-10T14:24:40.686Z,6.22
2023-04-10T14:27:43.957Z,6.38
2023-04-10T14:30:51.130Z,6.18
2023-04-10T14:33:54.237Z,6.50
2023-04-10T14:36:57.536Z,5.78
2023-04-10T14:40:00.512Z,6.07
2023-04-10T14:43:03.356Z,5.15
2023-04-10T14:46:06.540Z,5.82
2023-04-10T14:49:11.585Z,5.25
2023-04-10T14:52:17.272Z,5.68
2023-04-10T14:55:20.308Z,6.95
2023-04-10T14:58:23.301Z,5.20
2023-04-10T15:01:26.101Z,5.95
2023-04-10T15:04:29.467Z,5.97
2023-04-10T15:07:32.526Z,5.43
2023-04-10T15:10:35.356Z,5.10
2023-04-10T15:13:39.131Z,5.10
2023-04-10T15:16:42.631Z,5.47
2023-04-10T15:19:46.122Z,5.18
2023-04-10T15:22:48.981Z,5.32
2023-04-10T15:25:52.008Z,4.78
2023-04-10T15:28:55.094Z,4.82
2023-04-10T15:32:00.195Z,5.38
2023-04-10T15:35:03.077Z,5.75
2023-04-10T15:38:07.054Z,5.97
2023-04-10T15:41:13.758Z,5.05
2023-04-10T15:44:19.918Z,5.53
2023-04-10T15:47:22.888Z,5.57
2023-04-10T15:50:26.011Z,5.63
2023-04-10T15:53:28.960Z,5.88
2023-04-10T15:56:33.568Z,7.00
2023-04-10T15:59:37.229Z,5.45
2023-04-10T16:02:40.393Z,9.27
2023-04-10T16:05:43.496Z,9.45
2023-04-10T16:08:46.182Z,8.10
2023-04-10T16:11:50.474Z,8.05
2023-04-10T16:14:53.279Z,6.03
2023-04-10T16:17:56.076Z,5.47
2023-04-10T16:20:59.007Z,5.97
2023-04-10T16:24:02.043Z,8.48
2023-04-10T16:27:08.609Z,8.25
2023-04-10T16:30:12.308Z,5.15
2023-04-10T16:33:14.976Z,5.80
2023-04-10T16:36:17.953Z,6.70
2023-04-10T16:39:20.918Z,8.98
2023-04-10T16:42:23.994Z,6.53
2023-04-10T16:45:26.976Z,7.47
2023-04-10T16:48:30.075Z,9.68
2023-04-10T16:51:33.036Z,8.40
2023-04-10T16:54:35.998Z,8.35
2023-04-10T16:57:38.763Z,7.82
2023-04-10T17:00:41.981Z,13.15
2023-04-10T17:03:49.142Z,8.85
2023-04-10T17:06:52.346Z,5.93
2023-04-10T17:09:55.019Z,9.07
2023-04-10T17:12:57.838Z,10.90
2023-04-10T17:16:00.846Z,8.35
2023-04-10T17:19:03.850Z,8.40
2023-04-10T17:22:15.838Z,6.90
2023-04-10T17:25:18.898Z,12.60
2023-04-10T17:28:22.072Z,10.52
2023-04-10T17:31:24.967Z,7.10
2023-04-10T17:34:27.866Z,10.27
2023-04-10T17:37:30.862Z,6.30
2023-04-10T17:40:33.906Z,7.20
2023-04-10T17:43:37.195Z,6.07
2023-04-10T17:46:40.078Z,6.88
2023-04-10T17:49:43.206Z,6.38
2023-04-10T17:52:46.397Z,6.68
2023-04-10T17:55:49.405Z,7.05
2023-04-10T17:58:54.580Z,6.90
2023-04-10T18:01:57.715Z,7.75
2023-04-10T18:05:02.348Z,7.40
2023-04-10T18:08:05.553Z,6.85
2023-04-10T18:11:08.618Z,6.47
2023-04-10T18:14:11.681Z,7.60
2023-04-10T18:17:15.380Z,10.82
2023-04-10T18:20:19.437Z,11.60
2023-04-10T18:23:24.884Z,7.82
2023-04-10T18:26:33.915Z,9.95
2023-04-10T18:29:37.086Z,9.82
2023-04-10T18:32:40.126Z,7.78
2023-04-10T18:35:43.307Z,7.18
2023-04-10T18:38:47.856Z,7.00
2023-04-10T18:41:51.044Z,7.18
2023-04-10T18:44:54.121Z,7.30
2023-04-10T18:47:56.813Z,6.82
2023-04-10T18:50:59.668Z,8.75
2023-04-10T18:54:04.083Z,7.63
2023-04-10T18:57:08.252Z,8.55
2023-04-10T19:00:12.144Z,7.63
2023-04-10T19:03:15.294Z,8.75
2023-04-10T19:06:18.490Z,8.60
2023-04-10T19:09:21.373Z,11.30
2023-04-10T19:12:24.387Z,10.70
2023-04-10T19:15:27.690Z,9.18
2023-04-10T19:18:31.129Z,8.35
2023-04-10T19:21:34.924Z,8.63
2023-04-10T19:24:37.671Z,9.98
2023-04-10T19:27:40.569Z,9.18
2023-04-10T19:30:43.501Z,8.82
2023-04-10T19:33:46.300Z,8.90
2023-04-10T19:36:49.007Z,8.80
2023-04-10T19:39:51.980Z,8.20
2023-04-10T19:42:55.318Z,7.65
2023-04-10T19:46:00.212Z,9.50
2023-04-10T19:49:03.315Z,10.02
2023-04-10T19:52:06.140Z,11.63
2023-04-10T19:55:09.563Z,12.73
2023-04-10T19:58:30.073Z,13.05
2023-04-10T20:01:35.490Z,10.65
2023-04-10T20:04:38.560Z,10.68
2023-04-10T20:07:45.228Z,9.00
2023-04-10T20:10:48.221Z,7.65
2023-04-10T20:13:51.165Z,9.23
2023-04-10T20:16:54.668Z,9.25
2023-04-10T20:19:58.233Z,10.55
2023-04-10T20:23:01.509Z,11.35
2023-04-10T20:26:04.489Z,10.32
2023-04-10T20:29:07.204Z,9.30
2023-04-10T20:32:09.980Z,9.02
2023-04-10T20:35:14.402Z,8.80
2023-04-10T20:38:18.477Z,10.05
2023-04-10T20:41:21.495Z,9.60
2023-04-10T20:44:27.255Z,9.25
2023-04-10T20:47:30.622Z,9.98
2023-04-10T20:50:33.608Z,9.50
2023-04-10T20:53:36.363Z,9.50
2023-04-10T20:56:43.450Z,9.32
2023-04-10T20:59:46.812Z,9.50
2023-04-10T21:02:50.055Z,9.60
2023-04-10T21:05:53.889Z,10.55
2023-04-10T21:08:57.006Z,9.65
2023-04-10T21:12:02.278Z,9.13
2023-04-10T21:15:05.285Z,10.70
2023-04-10T21:18:08.312Z,8.95
2023-04-10T21:21:11.567Z,9.93
2023-04-10T21:24:14.244Z,31.85
2023-04-10T21:27:17.149Z,10.98
2023-04-10T21:30:20.124Z,9.75
2023-04-10T21:33:23.044Z,9.43
2023-04-10T21:36:26.756Z,9.25
2023-04-10T21:39:30.172Z,7.85
2023-04-10T21:42:33.729Z,8.48
2023-04-10T21:45:38.820Z,11.20
2023-04-10T21:48:42.066Z,9.63
2023-04-10T21:51:44.890Z,9.30
2023-04-10T21:54:47.728Z,9.57
2023-04-10T21:57:50.540Z,9.48
2023-04-10T22:00:54.971Z,8.52
2023-04-10T22:03:57.997Z,9.13
2023-04-10T22:07:00.969Z,9.40
2023-04-10T22:10:04.211Z,9.38
2023-04-10T22:13:08.842Z,11.18
2023-04-10T22:16:13.082Z,9.65
2023-04-10T22:19:15.880Z,11.07
2023-04-10T22:22:20.478Z,11.27
2023-04-10T22:25:23.924Z,11.10
2023-04-10T22:28:26.741Z,10.73
2023-04-10T22:31:29.398Z,10.15
2023-04-10T22:34:32.411Z,9.93
2023-04-10T22:37:35.068Z,9.55
2023-04-10T22:40:39.009Z,10.40
2023-04-10T22:43:41.686Z,10.18
2023-04-10T22:46:44.711Z,9.25
2023-04-10T22:49:47.710Z,7.38
2023-04-10T22:52:50.632Z,8.70
2023-04-10T22:55:53.301Z,9.05
2023-04-10T22:58:56.497Z,10.23
2023-04-10T23:01:59.634Z,10.38
2023-04-10T23:05:03.146Z,9.40
2023-04-10T23:08:05.962Z,10.50
2023-04-10T23:11:08.621Z,7.97
2023-04-10T23:14:11.387Z,10.32
2023-04-10T23:17:14.165Z,7.80
2023-04-10T23:20:17.084Z,8.07
2023-04-10T23:23:20.291Z,6.78
2023-04-10T23:26:23.220Z,6.40
2023-04-10T23:29:26.050Z,7.60
2023-04-10T23:32:28.719Z,8.18
2023-04-10T23:35:31.441Z,9.55
2023-04-10T23:38:34.113Z,10.00
2023-04-10T23:41:36.940Z,9.20
2023-04-10T23:44:40.734Z,8.90
2023-04-10T23:47:44.269Z,9.38
2023-04-10T23:50:46.940Z,4.95
2023-04-10T23:53:49.705Z,6.32
2023-04-10T23:56:52.786Z,4.60
2023-04-10T23:59:55.578Z,7.50
